createdAt,value
2018-07-19T00:00:45.864Z,98.00
2018-07-19T00:03:14.001Z,98.10
2018-07-19T00:05:42.151Z,98.40
2018-07-19T00:08:10.310Z,98.80
2018-07-19T00:10:38.444Z,99.00
2018-07-19T00:13:06.568Z,99.30
2018-07-19T00:15:34.688Z,99.60
2018-07-19T00:18:02.830Z,99.90
2018-07-19T00:20:30.961Z,99.90
2018-07-19T00:22:59.127Z,99.90
2018-07-19T00:25:27.255Z,99.90
2018-07-19T00:27:55.381Z,99.90
2018-07-19T00:30:23.525Z,99.90
2018-07-19T00:32:51.665Z,99.90
2018-07-19T00:35:19.809Z,99.90
2018-07-19T00:37:47.936Z,99.90
2018-07-19T00:40:16.102Z,99.90
2018-07-19T00:42:44.233Z,99.90
2018-07-19T00:45:12.381Z,99.90
2018-07-19T00:47:40.543Z,99.90
2018-07-19T00:50:08.787Z,99.90
2018-07-19T00:52:36.916Z,99.90
2018-07-19T00:55:05.057Z,99.90
2018-07-19T00:57:33.180Z,99.90
2018-07-19T01:00:01.305Z,99.90
2018-07-19T01:02:29.489Z,99.90
2018-07-19T01:04:57.653Z,99.90
2018-07-19T01:07:25.804Z,99.90
2018-07-19T01:09:53.955Z,99.90
2018-07-19T01:12:24.895Z,99.90
2018-07-19T01:14:53.030Z,99.90
2018-07-19T01:17:21.164Z,99.90
2018-07-19T01:19:49.353Z,99.90
2018-07-19T01:22:17.461Z,99.90
2018-07-19T01:24:45.613Z,99.90
2018-07-19T01:27:13.737Z,99.90
2018-07-19T01:29:41.853Z,99.90
2018-07-19T01:32:10.437Z,99.90
2018-07-19T01:34:38.513Z,99.90
2018-07-19T01:37:06.658Z,99.90
2018-07-19T01:39:34.796Z,99.90
2018-07-19T01:42:24.212Z,99.90
2018-07-19T01:44:52.354Z,99.90
2018-07-19T01:47:20.541Z,99.90
2018-07-19T01:49:48.757Z,99.90
2018-07-19T01:52:16.906Z,99.90
2018-07-19T01:54:45.157Z,99.90
2018-07-19T01:57:14.339Z,99.90
2018-07-19T01:59:43.081Z,99.90
2018-07-19T02:02:11.681Z,99.90
2018-07-19T02:04:39.805Z,99.90
2018-07-19T02:07:08.280Z,99.90
2018-07-19T02:09:36.415Z,99.90
2018-07-19T02:12:05.380Z,99.90
2018-07-19T02:14:33.574Z,99.90
2018-07-19T02:17:02.017Z,99.90
2018-07-19T02:19:30.162Z,99.90
2018-07-19T02:21:58.277Z,99.90
2018-07-19T02:24:26.442Z,99.90
2018-07-19T02:26:54.580Z,99.90
2018-07-19T02:29:22.996Z,99.90
2018-07-19T02:31:51.196Z,99.90
2018-07-19T02:34:19.342Z,99.90
2018-07-19T02:36:47.459Z,99.90
2018-07-19T02:39:15.704Z,99.90
2018-07-19T02:41:43.825Z,99.90
2018-07-19T02:44:12.961Z,99.90
2018-07-19T02:46:42.098Z,99.90
2018-07-19T02:49:10.524Z,99.90
2018-07-19T02:51:39.521Z,99.90
2018-07-19T02:54:07.711Z,99.90
2018-07-19T02:56:35.891Z,99.90
2018-07-19T02:59:04.093Z,99.90
2018-07-19T03:01:32.217Z,99.90
2018-07-19T03:04:00.329Z,99.90
2018-07-19T03:06:28.467Z,99.90
2018-07-19T03:08:56.597Z,99.90
2018-07-19T03:11:24.713Z,99.90
2018-07-19T03:13:52.896Z,99.90
2018-07-19T03:16:21.025Z,99.90
2018-07-19T03:18:49.198Z,99.90
2018-07-19T03:21:17.340Z,99.90
2018-07-19T03:23:45.473Z,99.90
2018-07-19T03:26:13.641Z,99.90
2018-07-19T03:28:41.771Z,99.90
2018-07-19T03:31:10.324Z,99.90
2018-07-19T03:33:38.337Z,99.90
2018-07-19T03:36:06.448Z,99.90
2018-07-19T03:38:34.573Z,99.90
2018-07-19T03:41:02.672Z,99.90
2018-07-19T03:43:30.811Z,99.90
2018-07-19T03:45:58.914Z,99.90
2018-07-19T03:48:27.066Z,99.90
2018-07-19T03:50:55.187Z,99.90
2018-07-19T03:53:23.327Z,99.90
2018-07-19T03:55:51.479Z,99.90
2018-07-19T03:58:19.629Z,99.90
2018-07-19T04:00:47.757Z,99.90
2018-07-19T04:03:15.857Z,99.90
2018-07-19T04:05:43.973Z,99.90
2018-07-19T04:08:12.096Z,99.90
2018-07-19T04:10:40.210Z,99.90
2018-07-19T04:13:08.358Z,99.90
2018-07-19T04:15:36.520Z,99.90
2018-07-19T04:18:04.766Z,99.90
2018-07-19T04:20:33.277Z,99.90
2018-07-19T04:23:01.399Z,99.90
2018-07-19T04:25:29.501Z,99.90
2018-07-19T04:27:58.080Z,99.90
2018-07-19T04:30:26.227Z,99.90
2018-07-19T04:32:54.370Z,99.90
2018-07-19T04:35:22.509Z,99.90
2018-07-19T04:37:50.658Z,99.90
2018-07-19T04:40:18.797Z,99.90
2018-07-19T04:42:46.925Z,99.90
2018-07-19T04:45:15.057Z,99.90
2018-07-19T04:47:43.191Z,99.90
2018-07-19T04:50:11.314Z,99.90
2018-07-19T04:52:39.417Z,99.90
2018-07-19T04:55:07.521Z,99.90
2018-07-19T04:57:35.637Z,99.90
2018-07-19T05:00:03.766Z,99.90
2018-07-19T05:02:31.884Z,99.90
2018-07-19T05:05:00.038Z,99.90
2018-07-19T05:07:28.158Z,99.90
2018-07-19T05:09:56.295Z,99.90
2018-07-19T05:12:24.512Z,99.90
2018-07-19T05:14:52.692Z,99.90
2018-07-19T05:17:20.930Z,99.90
2018-07-19T05:19:49.109Z,99.90
2018-07-19T05:22:17.225Z,99.90
2018-07-19T05:24:45.389Z,99.90
2018-07-19T05:27:13.517Z,99.90
2018-07-19T05:29:41.666Z,99.90
2018-07-19T05:32:09.802Z,99.90
2018-07-19T05:34:37.958Z,99.90
2018-07-19T05:37:06.106Z,99.90
2018-07-19T05:39:34.233Z,99.90
2018-07-19T05:42:02.373Z,99.90
2018-07-19T05:44:30.517Z,99.90
2018-07-19T05:46:58.651Z,99.90
2018-07-19T05:49:27.840Z,99.90
2018-07-19T05:51:56.006Z,99.90
2018-07-19T05:54:24.266Z,99.90
2018-07-19T05:56:57.950Z,99.90
2018-07-19T05:59:26.445Z,99.90
2018-07-19T06:01:54.585Z,99.90
2018-07-19T06:04:22.769Z,99.90
2018-07-19T06:06:51.249Z,99.90
2018-07-19T06:09:19.378Z,99.90
2018-07-19T06:11:47.513Z,99.90
2018-07-19T06:14:15.657Z,99.90
2018-07-19T06:16:43.786Z,99.90
2018-07-19T06:19:11.927Z,99.90
2018-07-19T06:21:40.066Z,99.90
2018-07-19T06:24:08.275Z,99.90
2018-07-19T06:26:36.475Z,99.90
2018-07-19T06:29:04.642Z,98.90
2018-07-19T06:31:32.808Z,99.20
2018-07-19T06:34:01.002Z,98.90
2018-07-19T06:36:29.146Z,99.10
2018-07-19T06:38:57.389Z,98.70
2018-07-19T06:41:25.526Z,97.20
2018-07-19T06:43:53.667Z,97.60
2018-07-19T06:46:21.809Z,96.50
2018-07-19T06:48:49.917Z,95.50
2018-07-19T06:51:18.037Z,96.10
2018-07-19T06:53:46.158Z,96.40
2018-07-19T06:56:14.334Z,95.20
2018-07-19T06:58:42.470Z,94.30
2018-07-19T07:01:10.579Z,94.70
2018-07-19T07:03:38.701Z,93.90
2018-07-19T07:06:06.826Z,93.40
2018-07-19T07:08:35.040Z,92.80
2018-07-19T07:11:03.161Z,92.10
2018-07-19T07:13:31.294Z,92.70
2018-07-19T07:15:59.420Z,92.30
2018-07-19T07:18:27.589Z,92.30
2018-07-19T07:20:55.757Z,91.00
2018-07-19T07:23:23.929Z,91.80
2018-07-19T07:25:53.166Z,90.70
2018-07-19T07:28:23.300Z,90.50
2018-07-19T07:30:51.464Z,90.50
2018-07-19T07:33:19.980Z,90.60
2018-07-19T07:35:48.683Z,87.40
2018-07-19T07:38:17.616Z,87.40
2018-07-19T07:40:45.946Z,89.40
2018-07-19T07:43:14.090Z,88.80
2018-07-19T07:45:42.696Z,86.60
2018-07-19T07:48:10.875Z,85.20
2018-07-19T07:50:39.008Z,83.80
2018-07-19T07:53:07.149Z,83.50
2018-07-19T07:55:35.289Z,80.70
2018-07-19T07:58:04.073Z,81.40
2018-07-19T08:00:32.290Z,83.30
2018-07-19T08:03:00.523Z,80.70
2018-07-19T08:05:28.637Z,79.90
2018-07-19T08:07:56.790Z,77.00
2018-07-19T08:10:24.942Z,79.40
2018-07-19T08:12:53.170Z,81.50
2018-07-19T08:15:21.311Z,76.70
2018-07-19T08:17:49.458Z,78.50
2018-07-19T08:20:17.581Z,80.40
2018-07-19T08:22:45.730Z,78.90
2018-07-19T08:25:13.893Z,76.80
2018-07-19T08:27:42.009Z,74.80
2018-07-19T08:30:10.124Z,78.90
2018-07-19T08:32:38.261Z,74.80
2018-07-19T08:35:06.437Z,76.40
2018-07-19T08:37:34.586Z,76.90
2018-07-19T08:40:02.763Z,77.80
2018-07-19T08:42:30.954Z,74.30
2018-07-19T08:44:59.089Z,70.40
2018-07-19T08:47:27.423Z,71.60
2018-07-19T08:49:55.873Z,73.50
2018-07-19T08:52:24.521Z,72.80
2018-07-19T08:54:53.249Z,72.90
2018-07-19T08:57:21.445Z,70.10
2018-07-19T08:59:50.090Z,68.40
2018-07-19T09:02:18.244Z,68.00
2018-07-19T09:04:46.386Z,65.50
2018-07-19T09:07:14.509Z,63.10
2018-07-19T09:09:42.634Z,63.40
2018-07-19T09:12:11.670Z,65.90
2018-07-19T09:14:39.923Z,65.50
2018-07-19T09:17:08.103Z,67.10
2018-07-19T09:19:36.312Z,64.00
2018-07-19T09:22:04.437Z,67.40
2018-07-19T09:24:32.730Z,64.30
2018-07-19T09:27:01.168Z,66.50
2018-07-19T09:29:29.314Z,62.70
2018-07-19T09:31:57.491Z,65.00
2018-07-19T09:34:25.674Z,61.80
2018-07-19T09:36:53.841Z,62.30
2018-07-19T09:39:22.002Z,60.40
2018-07-19T09:41:50.212Z,61.50
2018-07-19T09:44:18.338Z,59.60
2018-07-19T09:46:46.469Z,59.60
2018-07-19T09:49:15.682Z,59.50
2018-07-19T09:51:43.911Z,58.60
2018-07-19T09:54:22.200Z,58.90
2018-07-19T09:56:50.830Z,56.00
2018-07-19T09:59:19.098Z,55.10
2018-07-19T10:01:47.213Z,58.90
2018-07-19T10:04:15.350Z,60.40
2018-07-19T10:06:43.502Z,56.30
2018-07-19T10:09:11.649Z,53.90
2018-07-19T10:11:39.816Z,54.70
2018-07-19T10:14:07.973Z,57.00
2018-07-19T10:16:36.098Z,58.80
2018-07-19T10:19:04.258Z,56.20
2018-07-19T10:21:32.445Z,58.30
2018-07-19T10:24:00.587Z,56.10
2018-07-19T10:26:28.773Z,55.00
2018-07-19T10:28:57.056Z,53.90
2018-07-19T10:31:25.322Z,56.60
2018-07-19T10:33:53.523Z,57.40
2018-07-19T10:36:21.690Z,57.70
2018-07-19T10:38:49.895Z,57.60
2018-07-19T10:41:18.052Z,56.20
2018-07-19T10:43:46.214Z,56.50
2018-07-19T10:46:14.352Z,56.40
2018-07-19T10:48:42.531Z,57.00
2018-07-19T10:51:10.681Z,56.40
2018-07-19T10:53:38.866Z,55.60
2018-07-19T10:56:06.992Z,54.90
2018-07-19T10:58:35.181Z,54.10
2018-07-19T11:01:03.506Z,54.90
2018-07-19T11:03:32.105Z,52.90
2018-07-19T11:06:00.841Z,52.20
2018-07-19T11:08:29.273Z,53.70
2018-07-19T11:10:58.224Z,53.00
2018-07-19T11:13:26.997Z,53.40
2018-07-19T11:15:55.437Z,53.30
2018-07-19T11:18:24.917Z,51.00
2018-07-19T11:20:54.328Z,50.60
2018-07-19T11:23:24.072Z,52.90
2018-07-19T11:25:53.632Z,52.10
2018-07-19T11:28:22.700Z,53.60
2018-07-19T11:30:50.898Z,54.00
2018-07-19T11:33:19.086Z,55.50
2018-07-19T11:35:47.228Z,52.40
2018-07-19T11:38:15.397Z,52.30
2018-07-19T11:40:43.602Z,53.90
2018-07-19T11:43:11.781Z,56.40
2018-07-19T11:45:39.941Z,55.10
2018-07-19T11:48:08.154Z,56.80
2018-07-19T11:50:36.278Z,54.40
2018-07-19T11:53:04.541Z,54.00
2018-07-19T11:55:33.270Z,53.10
2018-07-19T11:58:01.901Z,52.60
2018-07-19T12:00:30.846Z,51.10
2018-07-19T12:02:58.997Z,50.50
2018-07-19T12:05:27.166Z,50.20
2018-07-19T12:07:55.343Z,50.50
2018-07-19T12:10:23.503Z,51.30
2018-07-19T12:12:51.692Z,50.80
2018-07-19T12:15:19.898Z,52.10
2018-07-19T12:17:48.094Z,53.00
2018-07-19T12:20:16.257Z,52.50
2018-07-19T12:22:44.418Z,51.70
2018-07-19T12:25:12.626Z,53.00
2018-07-19T12:27:40.901Z,52.30
2018-07-19T12:30:09.073Z,53.90
2018-07-19T12:32:37.235Z,52.00
2018-07-19T12:35:05.443Z,53.70
2018-07-19T12:37:33.637Z,53.10
2018-07-19T12:40:01.875Z,53.00
2018-07-19T12:42:30.066Z,52.90
2018-07-19T12:44:58.213Z,50.20
2018-07-19T12:47:26.730Z,50.60
2018-07-19T12:49:54.913Z,50.30
2018-07-19T12:52:23.126Z,49.50
2018-07-19T12:54:51.369Z,49.60
2018-07-19T12:57:20.808Z,49.50
2018-07-19T12:59:50.195Z,50.60
2018-07-19T13:02:18.471Z,50.90
2018-07-19T13:04:46.808Z,50.10
2018-07-19T13:07:15.013Z,49.90
2018-07-19T13:09:43.207Z,49.70
2018-07-19T13:12:11.386Z,48.40
2018-07-19T13:14:39.598Z,48.90
2018-07-19T13:17:07.804Z,49.30
2018-07-19T13:19:36.001Z,49.00
2018-07-19T13:22:04.196Z,48.60
2018-07-19T13:24:32.322Z,48.60
2018-07-19T13:27:00.506Z,49.80
2018-07-19T13:29:28.673Z,50.80
2018-07-19T13:31:56.850Z,52.90
2018-07-19T13:34:25.058Z,51.60
2018-07-19T13:36:53.335Z,47.70
2018-07-19T13:39:21.553Z,47.70
2018-07-19T13:41:49.686Z,49.10
2018-07-19T13:44:17.894Z,49.30
2018-07-19T13:46:46.170Z,51.20
2018-07-19T13:49:14.325Z,50.60
2018-07-19T13:51:42.474Z,49.90
2018-07-19T13:54:13.361Z,50.00
2018-07-19T13:56:41.958Z,49.70
2018-07-19T13:59:10.233Z,49.40
2018-07-19T14:01:38.541Z,50.50
2018-07-19T14:04:06.838Z,50.80
2018-07-19T14:06:34.993Z,49.60
2018-07-19T14:09:04.244Z,51.00
2018-07-19T14:11:32.382Z,50.10
2018-07-19T14:14:00.513Z,49.20
2018-07-19T14:16:28.673Z,51.20
2018-07-19T14:18:56.844Z,49.30
2018-07-19T14:21:25.134Z,49.50
2018-07-19T14:23:53.349Z,46.20
2018-07-19T14:26:21.577Z,47.20
2018-07-19T14:28:50.240Z,47.40
2018-07-19T14:31:19.457Z,48.10
2018-07-19T14:33:48.634Z,48.60
2018-07-19T14:36:16.750Z,48.30
2018-07-19T14:38:44.881Z,49.40
2018-07-19T14:41:13.002Z,49.70
2018-07-19T14:43:41.161Z,49.20
2018-07-19T14:46:09.442Z,49.20
2018-07-19T14:48:37.585Z,48.80
2018-07-19T14:51:05.708Z,48.90
2018-07-19T14:53:33.881Z,47.70
2018-07-19T14:56:02.843Z,47.00
2018-07-19T14:58:31.985Z,48.10
2018-07-19T15:01:00.186Z,48.00
2018-07-19T15:03:28.353Z,49.10
2018-07-19T15:05:57.194Z,49.60
2018-07-19T15:08:26.346Z,48.40
2018-07-19T15:10:55.397Z,48.70
2018-07-19T15:13:23.682Z,46.10
2018-07-19T15:15:51.905Z,48.40
2018-07-19T15:18:21.060Z,48.80
2018-07-19T15:20:49.225Z,48.40
2018-07-19T15:23:17.366Z,49.10
2018-07-19T15:25:45.702Z,48.90
2018-07-19T15:28:13.835Z,48.80
2018-07-19T15:30:41.971Z,48.90
2018-07-19T15:33:10.133Z,49.00
2018-07-19T15:35:38.298Z,49.30
2018-07-19T15:38:06.477Z,50.30
2018-07-19T15:40:34.609Z,48.80
2018-07-19T15:43:03.373Z,49.40
2018-07-19T15:45:31.535Z,49.30
2018-07-19T15:47:59.680Z,49.40
2018-07-19T15:50:27.811Z,49.40
2018-07-19T15:52:55.974Z,49.20
2018-07-19T15:55:24.212Z,49.80
2018-07-19T15:57:52.493Z,49.80
2018-07-19T16:00:20.706Z,49.30
2018-07-19T16:02:48.875Z,47.80
2018-07-19T16:05:17.045Z,49.00
2018-07-19T16:07:45.755Z,49.40
2018-07-19T16:10:13.892Z,49.80
2018-07-19T16:12:42.031Z,48.60
2018-07-19T16:15:10.229Z,48.20
2018-07-19T16:17:38.350Z,47.80
2018-07-19T16:20:06.637Z,48.80
2018-07-19T16:22:34.766Z,48.70
2018-07-19T16:25:03.194Z,48.30
2018-07-19T16:27:31.593Z,47.60
2018-07-19T16:30:00.410Z,48.10
2018-07-19T16:32:28.894Z,49.00
2018-07-19T16:34:57.585Z,47.80
2018-07-19T16:37:26.460Z,49.00
2018-07-19T16:39:55.245Z,48.40
2018-07-19T16:42:24.060Z,47.40
2018-07-19T16:44:52.865Z,48.50
2018-07-19T16:47:21.940Z,48.20
2018-07-19T16:49:50.551Z,47.00
2018-07-19T16:52:18.696Z,47.80
2018-07-19T16:54:46.937Z,47.80
2018-07-19T16:57:15.073Z,48.40
2018-07-19T16:59:43.235Z,48.60
2018-07-19T17:02:11.373Z,48.40
2018-07-19T17:04:39.528Z,48.20
2018-07-19T17:07:07.696Z,48.60
2018-07-19T17:09:35.869Z,48.60
2018-07-19T17:12:03.986Z,49.00
2018-07-19T17:14:32.502Z,48.30
2018-07-19T17:17:00.927Z,48.50
2018-07-19T17:19:29.443Z,48.50
2018-07-19T17:21:58.704Z,48.00
2018-07-19T17:24:27.566Z,48.30
2018-07-19T17:26:56.894Z,47.80
2018-07-19T17:29:26.190Z,48.30
2018-07-19T17:31:55.264Z,48.10
2018-07-19T17:34:23.886Z,48.20
2018-07-19T17:36:52.659Z,48.50
2018-07-19T17:39:22.609Z,47.80
2018-07-19T17:41:53.038Z,48.70
2018-07-19T17:44:22.132Z,47.70
2018-07-19T17:46:50.863Z,47.80
2018-07-19T17:49:19.098Z,47.80
2018-07-19T17:51:47.255Z,48.10
2018-07-19T17:54:15.420Z,48.70
2018-07-19T17:56:43.608Z,48.80
2018-07-19T17:59:11.693Z,48.80
2018-07-19T18:01:39.920Z,48.80
2018-07-19T18:04:08.166Z,49.40
2018-07-19T18:06:36.297Z,49.40
2018-07-19T18:09:06.762Z,49.40
2018-07-19T18:11:34.940Z,49.70
2018-07-19T18:14:03.090Z,49.90
2018-07-19T18:16:31.247Z,50.70
2018-07-19T18:18:59.395Z,51.20
2018-07-19T18:21:27.570Z,50.70
2018-07-19T18:23:55.722Z,51.00
2018-07-19T18:26:24.763Z,51.40
2018-07-19T18:28:54.944Z,51.50
2018-07-19T18:31:24.899Z,51.80
2018-07-19T18:33:54.420Z,51.70
2018-07-19T18:36:24.073Z,51.90
2018-07-19T18:38:53.710Z,52.50
2018-07-19T18:41:23.007Z,52.80
2018-07-19T18:43:52.706Z,52.60
2018-07-19T18:46:22.809Z,52.60
2018-07-19T18:48:52.600Z,52.90
2018-07-19T18:51:21.837Z,52.90
2018-07-19T18:53:52.195Z,53.10
2018-07-19T18:56:21.711Z,52.80
2018-07-19T18:58:50.987Z,52.90
2018-07-19T19:01:21.060Z,52.70
2018-07-19T19:03:49.816Z,53.10
2018-07-19T19:06:19.283Z,53.60
2018-07-19T19:08:46.290Z,53.60
2018-07-19T19:11:14.459Z,53.50
2018-07-19T19:13:42.614Z,53.30
2018-07-19T19:16:10.754Z,53.60
2018-07-19T19:18:38.899Z,54.00
2018-07-19T19:21:07.101Z,54.60
2018-07-19T19:23:35.256Z,54.70
2018-07-19T19:26:03.564Z,55.60
2018-07-19T19:28:32.326Z,56.00
2018-07-19T19:31:00.606Z,55.60
2018-07-19T19:33:29.053Z,57.50
2018-07-19T19:35:57.605Z,56.20
2018-07-19T19:38:26.101Z,56.90
2018-07-19T19:40:54.453Z,57.60
2018-07-19T19:43:23.041Z,56.90
2018-07-19T19:45:51.605Z,56.30
2018-07-19T19:48:20.666Z,58.00
2018-07-19T19:50:48.976Z,57.10
2018-07-19T19:53:17.157Z,59.20
2018-07-19T19:55:45.309Z,58.50
2018-07-19T19:58:13.470Z,58.80
2018-07-19T20:00:41.622Z,59.20
2018-07-19T20:03:09.801Z,59.90
2018-07-19T20:05:37.998Z,59.50
2018-07-19T20:08:06.215Z,60.00
2018-07-19T20:10:34.408Z,61.10
2018-07-19T20:13:02.663Z,61.40
2018-07-19T20:15:30.956Z,61.60
2018-07-19T20:17:59.221Z,62.70
2018-07-19T20:20:27.852Z,63.20
2018-07-19T20:22:56.547Z,63.10
2018-07-19T20:25:25.480Z,63.90
2018-07-19T20:27:53.658Z,64.40
2018-07-19T20:30:21.858Z,64.90
2018-07-19T20:32:49.989Z,64.80
2018-07-19T20:35:18.113Z,66.00
2018-07-19T20:37:46.226Z,66.10
2018-07-19T20:40:14.405Z,65.20
2018-07-19T20:42:42.536Z,65.50
2018-07-19T20:45:10.681Z,65.40
2018-07-19T20:47:38.820Z,65.40
2018-07-19T20:50:06.945Z,66.50
2018-07-19T20:52:35.140Z,66.80
2018-07-19T20:55:03.511Z,67.90
2018-07-19T20:57:31.893Z,67.40
2018-07-19T21:00:00.286Z,67.50
2018-07-19T21:02:28.872Z,67.70
2018-07-19T21:04:57.378Z,67.60
2018-07-19T21:07:25.976Z,67.70
2018-07-19T21:09:54.604Z,68.20
2018-07-19T21:12:22.840Z,68.40
2018-07-19T21:14:51.053Z,69.20
2018-07-19T21:17:19.209Z,70.00
2018-07-19T21:19:47.354Z,69.60
2018-07-19T21:22:15.485Z,69.60
2018-07-19T21:24:43.679Z,69.00
2018-07-19T21:27:12.475Z,69.40
2018-07-19T21:29:40.605Z,70.10
2018-07-19T21:32:08.828Z,69.90
2018-07-19T21:34:36.990Z,70.50
2018-07-19T21:37:05.146Z,70.70
2018-07-19T21:39:33.592Z,70.80
2018-07-19T21:42:02.031Z,71.60
2018-07-19T21:44:30.501Z,71.10
2018-07-19T21:46:59.356Z,71.40
2018-07-19T21:49:28.350Z,72.10
2018-07-19T21:51:57.686Z,72.30
2018-07-19T21:54:26.196Z,72.70
2018-07-19T21:56:55.207Z,72.90
2018-07-19T21:59:23.630Z,73.20
2018-07-19T22:01:51.785Z,73.30
2018-07-19T22:04:19.922Z,74.30
2018-07-19T22:06:48.682Z,74.10
2018-07-19T22:09:16.818Z,74.30
2018-07-19T22:11:44.955Z,74.50
2018-07-19T22:14:13.205Z,75.10
2018-07-19T22:16:41.341Z,75.70
2018-07-19T22:19:09.477Z,76.30
2018-07-19T22:21:37.614Z,77.40
2018-07-19T22:24:05.769Z,76.20
2018-07-19T22:26:34.038Z,75.80
2018-07-19T22:29:02.355Z,76.40
2018-07-19T22:31:30.573Z,76.90
2018-07-19T22:33:58.768Z,77.50
2018-07-19T22:36:27.041Z,77.90
2018-07-19T22:38:55.326Z,77.30
2018-07-19T22:41:23.500Z,77.70
2018-07-19T22:43:51.661Z,77.90
2018-07-19T22:46:20.765Z,78.30
2018-07-19T22:48:49.006Z,78.90
2018-07-19T22:51:17.222Z,79.20
2018-07-19T22:53:45.377Z,80.00
2018-07-19T22:56:13.511Z,80.60
2018-07-19T22:58:41.680Z,81.00
2018-07-19T23:01:09.820Z,81.50
2018-07-19T23:03:37.965Z,81.80
2018-07-19T23:06:06.068Z,82.30
2018-07-19T23:08:34.204Z,82.40
2018-07-19T23:11:02.351Z,82.90
2018-07-19T23:13:30.566Z,83.10
2018-07-19T23:15:58.974Z,83.60
2018-07-19T23:18:27.160Z,84.40
2018-07-19T23:20:55.317Z,84.50
2018-07-19T23:23:23.505Z,84.30
2018-07-19T23:25:51.628Z,84.70
2018-07-19T23:28:19.770Z,85.40
2018-07-19T23:30:47.895Z,86.00
2018-07-19T23:33:16.019Z,86.20
2018-07-19T23:36:17.990Z,87.00
2018-07-19T23:38:51.773Z,87.60
2018-07-19T23:41:56.762Z,88.30
2018-07-19T23:44:35.802Z,88.40
2018-07-19T23:47:08.880Z,88.70
2018-07-19T23:49:37.006Z,89.60
2018-07-19T23:52:05.128Z,90.00
2018-07-19T23:54:33.248Z,90.30
2018-07-19T23:57:01.399Z,90.30
2018-07-19T23:59:29.561Z,90.60
